Time;durP1;ratioP1;P1;durP2;ratioP2;P2;SDS_P1;SDS_P2;PMS_P1;PMS_P2;Temp;Humidity;BMP_temperature;BMP_pressure;BME280_temperature;BME280_humidity;BME280_pressure;Samples;Min_cycle;Max_cycle;Signal;HPM_P1;HPM_P2
2023/01/16 00:00:03;;;;;;;15.05;7.85;;;;;;;2.59;100.00;98409.91;5008041;28;20046;-43
2023/01/16 00:02:33;;;;;;;12.50;6.28;;;;;;;2.54;100.00;98410.16;4996746;28;20093;-43
2023/01/16 00:05:00;;;;;;;10.75;6.63;;;;;;;2.56;100.00;98413.34;5007915;28;20064;-43
2023/01/16 00:07:26;;;;;;;16.88;7.25;;;;;;;2.56;100.00;98418.00;5012907;28;20053;-48
2023/01/16 00:09:54;;;;;;;12.50;7.00;;;;;;;2.55;100.00;98421.88;5015447;28;20089;-43
2023/01/16 00:12:21;;;;;;;10.52;6.75;;;;;;;2.54;100.00;98414.84;5007616;28;20061;-43
2023/01/16 00:14:47;;;;;;;8.93;5.57;;;;;;;2.47;100.00;98416.22;5008278;28;20045;-45
2023/01/16 00:17:14;;;;;;;10.38;5.70;;;;;;;2.50;100.00;98408.47;4994311;28;20046;-43
2023/01/16 00:19:41;;;;;;;12.63;6.90;;;;;;;2.49;100.00;98413.13;5008129;28;20045;-43
2023/01/16 00:22:07;;;;;;;11.38;5.57;;;;;;;2.46;100.00;98419.31;5007704;28;20050;-50
2023/01/16 00:24:34;;;;;;;11.80;6.50;;;;;;;2.42;100.00;98424.66;5009932;28;20057;-48
2023/01/16 00:27:00;;;;;;;11.70;6.38;;;;;;;2.38;100.00;98422.97;5008421;28;20057;-44
2023/01/16 00:29:27;;;;;;;13.23;6.03;;;;;;;2.33;100.00;98415.81;5007988;28;20053;-43
2023/01/16 00:31:54;;;;;;;18.55;7.97;;;;;;;2.29;100.00;98414.94;5007783;28;20660;-43
2023/01/16 00:34:20;;;;;;;12.80;6.63;;;;;;;2.28;100.00;98412.53;5007849;28;20096;-47
2023/01/16 00:36:47;;;;;;;18.17;7.55;;;;;;;2.25;100.00;98418.72;5008988;28;20050;-43
2023/01/16 00:39:14;;;;;;;14.48;7.05;;;;;;;2.24;100.00;98428.03;5007367;28;20053;-44
2023/01/16 00:41:40;;;;;;;12.85;5.65;;;;;;;2.25;100.00;98415.97;5014237;28;20056;-44
2023/01/16 00:44:07;;;;;;;10.32;6.47;;;;;;;2.26;100.00;98423.00;4991627;28;20073;-43
2023/01/16 00:46:34;;;;;;;10.40;5.95;;;;;;;2.28;100.00;98418.78;5007832;28;20507;-43
2023/01/16 00:49:00;;;;;;;18.40;7.15;;;;;;;2.28;100.00;98418.00;5007295;28;20152;-46
2023/01/16 00:51:27;;;;;;;16.63;7.90;;;;;;;2.30;100.00;98415.72;5007595;28;20056;-45
2023/01/16 00:53:54;;;;;;;14.95;6.72;;;;;;;2.30;100.00;98411.03;5006783;28;20049;-44
2023/01/16 00:56:20;;;;;;;15.90;7.25;;;;;;;2.29;100.00;98416.84;5007547;28;20049;-45
2023/01/16 00:58:47;;;;;;;16.58;7.22;;;;;;;2.25;100.00;98424.94;5008868;28;20053;-43
2023/01/16 01:01:14;;;;;;;11.27;7.10;;;;;;;2.27;100.00;98421.88;5007105;28;20057;-43
2023/01/16 01:03:41;;;;;;;13.00;6.82;;;;;;;2.29;100.00;98427.78;5007200;28;20042;-44
2023/01/16 01:06:11;;;;;;;9.82;6.97;;;;;;;2.33;100.00;98415.03;5007898;28;20046;-43
2023/01/16 01:08:37;;;;;;;16.33;8.52;;;;;;;2.36;100.00;98419.78;4994238;28;20066;-43
2023/01/16 01:11:13;;;;;;;10.98;5.93;;;;;;;2.36;100.00;98417.06;5007324;28;20060;-43
2023/01/16 01:13:41;;;;;;;7.82;4.75;;;;;;;2.37;100.00;98418.66;5007022;28;20061;-43
2023/01/16 01:16:08;;;;;;;9.75;5.20;;;;;;;2.39;100.00;98427.28;5015605;28;20472;-43
2023/01/16 01:18:35;;;;;;;10.63;5.28;;;;;;;2.38;100.00;98428.44;5006781;28;20496;-43
2023/01/16 01:21:03;;;;;;;9.75;5.22;;;;;;;2.40;100.00;98423.41;5006930;28;20064;-43
2023/01/16 01:23:29;;;;;;;13.00;5.00;;;;;;;2.40;100.00;98420.69;5006966;28;20056;-44
2023/01/16 01:25:56;;;;;;;12.63;4.45;;;;;;;2.41;100.00;98420.34;5007063;28;20049;-43
2023/01/16 01:28:23;;;;;;;9.48;4.85;;;;;;;2.43;100.00;98411.81;5006959;28;20059;-45
2023/01/16 01:30:50;;;;;;;9.68;4.38;;;;;;;2.46;100.00;98419.31;5006870;28;20290;-43
2023/01/16 01:33:16;;;;;;;10.90;5.03;;;;;;;2.46;100.00;98416.56;5010230;28;20526;-43
2023/01/16 01:35:43;;;;;;;12.02;4.75;;;;;;;2.47;100.00;98420.88;5006708;28;20153;-46
2023/01/16 01:38:10;;;;;;;7.60;3.75;;;;;;;2.49;100.00;98428.75;5006827;28;20585;-43
2023/01/16 01:40:37;;;;;;;6.05;3.55;;;;;;;2.49;100.00;98424.03;5006780;28;20113;-43
2023/01/16 01:43:12;;;;;;;10.32;4.03;;;;;;;2.51;100.00;98429.97;5007335;28;20069;-44
2023/01/16 01:45:40;;;;;;;8.15;3.75;;;;;;;2.53;100.00;98424.16;5006720;28;20149;-43
2023/01/16 01:48:13;;;;;;;9.40;4.30;;;;;;;2.55;100.00;98436.31;5006808;28;20050;-43
2023/01/16 01:50:43;;;;;;;9.32;4.15;;;;;;;2.53;100.00;98430.41;5016389;28;20034;-43
2023/01/16 01:53:15;;;;;;;8.13;4.20;;;;;;;2.53;100.00;98430.41;4996244;28;20084;-43
2023/01/16 01:55:44;;;;;;;14.80;4.72;;;;;;;2.55;100.00;98425.38;5005291;28;20045;-43
2023/01/16 01:58:20;;;;;;;9.60;3.30;;;;;;;2.54;100.00;98434.75;5006788;28;20046;-44
2023/01/16 02:00:50;;;;;;;9.77;4.25;;;;;;;2.54;100.00;98418.34;5007145;28;20812;-43
2023/01/16 02:03:30;;;;;;;6.05;3.53;;;;;;;2.54;100.00;98426.56;4967530;28;20047;-43
2023/01/16 02:06:03;;;;;;;5.85;3.50;;;;;;;2.57;100.00;98425.81;4968128;28;20053;-48
2023/01/16 02:08:32;;;;;;;8.15;2.95;;;;;;;2.55;100.00;98428.13;4967706;28;20058;-43
2023/01/16 02:11:07;;;;;;;4.82;2.13;;;;;;;2.53;100.00;98435.88;4967715;28;20055;-43
2023/01/16 02:13:37;;;;;;;6.75;3.08;;;;;;;2.50;100.00;98428.38;4967658;28;20057;-45
2023/01/16 02:22:03;;;;;;;5.72;2.85;;;;;;;2.49;100.00;98429.50;4967487;28;20054;-43
2023/01/16 02:24:58;;;;;;;6.93;3.10;;;;;;;2.51;100.00;98429.97;4962802;28;20050;-43
2023/01/16 02:27:55;;;;;;;3.75;2.08;;;;;;;2.49;100.00;98418.59;4971107;28;20043;-43
2023/01/16 02:30:59;;;;;;;5.05;2.85;;;;;;;2.49;100.00;98426.78;4970880;28;20054;-48
2023/01/16 02:33:34;;;;;;;6.07;2.78;;;;;;;2.51;100.00;98426.44;4968346;28;20055;-45
2023/01/16 02:36:35;;;;;;;6.40;2.83;;;;;;;2.51;100.00;98437.38;4968356;28;20051;-47
2023/01/16 02:39:07;;;;;;;6.70;3.05;;;;;;;2.47;100.00;98437.25;4969725;28;20340;-45
2023/01/16 02:41:41;;;;;;;4.78;2.80;;;;;;;2.50;100.00;98446.69;4968801;28;20536;-43
2023/01/16 02:44:14;;;;;;;6.43;3.63;;;;;;;2.50;100.00;98452.16;4967124;28;20054;-43
2023/01/16 02:46:53;;;;;;;5.57;2.47;;;;;;;2.52;100.00;98449.88;4966049;28;20046;-44
2023/01/16 02:49:21;;;;;;;5.28;2.63;;;;;;;2.53;100.00;98451.47;4969688;28;20394;-43
2023/01/16 02:52:04;;;;;;;4.68;2.70;;;;;;;2.53;100.00;98446.81;4969529;28;20051;-43
2023/01/16 02:54:45;;;;;;;4.85;2.72;;;;;;;2.54;100.00;98448.41;4969497;28;20141;-44
2023/01/16 02:57:18;;;;;;;4.30;2.70;;;;;;;2.54;100.00;98447.59;4966707;28;20849;-47
2023/01/16 02:59:45;;;;;;;6.55;3.20;;;;;;;2.53;100.00;98465.91;4968008;28;20047;-46
2023/01/16 03:02:12;;;;;;;5.43;2.63;;;;;;;2.52;100.00;98456.13;5056468;22;20059;-48
2023/01/16 03:04:50;;;;;;;7.43;3.13;;;;;;;2.48;100.00;98449.78;5027025;28;20061;-42
2023/01/16 03:07:26;;;;;;;6.32;3.05;;;;;;;2.42;100.00;98448.44;5027431;28;20479;-43
2023/01/16 03:10:29;;;;;;;4.03;2.17;;;;;;;2.37;100.00;98457.69;5027139;28;20060;-44
2023/01/16 03:13:31;;;;;;;3.08;2.38;;;;;;;2.36;100.00;98458.81;5016419;28;20099;-45
2023/01/16 03:16:13;;;;;;;5.00;2.65;;;;;;;2.33;100.00;98453.25;4975777;28;20066;-42
2023/01/16 03:18:40;;;;;;;3.03;2.22;;;;;;;2.27;100.00;98460.91;5027386;28;20038;-42
2023/01/16 03:21:48;;;;;;;2.05;1.65;;;;;;;2.19;100.00;98463.75;5028695;28;20051;-43
2023/01/16 03:24:35;;;;;;;3.08;1.92;;;;;;;2.11;100.00;98457.31;5018207;28;20141;-43
2023/01/16 03:27:49;;;;;;;3.08;1.70;;;;;;;2.02;100.00;98453.09;5028624;28;20399;-43
2023/01/16 03:30:37;;;;;;;2.90;1.45;;;;;;;1.97;99.96;98458.78;4885924;29;20052;-42
2023/01/16 03:33:16;;;;;;;3.95;1.38;;;;;;;1.91;99.94;98463.69;4909582;29;20059;-43
2023/01/16 03:35:50;;;;;;;2.55;1.85;;;;;;;1.86;100.00;98458.47;4980953;28;20388;-43
2023/01/16 03:38:21;;;;;;;3.13;1.67;;;;;;;1.82;100.00;98458.38;5028721;28;20056;-43
2023/01/16 03:40:49;;;;;;;2.40;1.63;;;;;;;1.79;100.00;98461.78;5028302;28;20069;-42
2023/01/16 03:43:25;;;;;;;2.90;1.30;;;;;;;1.75;100.00;98463.59;5027837;28;20045;-44
2023/01/16 03:46:10;;;;;;;3.53;1.40;;;;;;;1.72;100.00;98472.47;5024849;28;20037;-44
2023/01/16 03:48:53;;;;;;;2.55;1.33;;;;;;;1.70;100.00;98482.13;5030780;28;20049;-45
2023/01/16 03:51:26;;;;;;;2.78;1.30;;;;;;;1.66;99.98;98468.41;5019695;28;20045;-43
2023/01/16 03:54:03;;;;;;;1.60;1.00;;;;;;;1.65;99.70;98487.81;5027119;28;20041;-45
2023/01/16 03:56:43;;;;;;;2.35;1.20;;;;;;;1.62;99.53;98497.47;5025204;28;20046;-43
2023/01/16 03:59:11;;;;;;;1.90;1.40;;;;;;;1.59;99.36;98498.16;5026273;28;20053;-43
2023/01/16 04:01:47;;;;;;;1.60;1.00;;;;;;;1.57;99.32;98505.88;5025303;28;20176;-45
2023/01/16 04:04:29;;;;;;;2.70;1.30;;;;;;;1.54;99.50;98494.84;5027163;28;20418;-43
2023/01/16 04:07:02;;;;;;;1.73;1.00;;;;;;;1.52;99.59;98500.66;5033303;28;20049;-43
2023/01/16 04:09:37;;;;;;;8.35;1.02;;;;;;;1.47;99.13;98498.16;5023423;28;20056;-47
2023/01/16 04:12:07;;;;;;;3.10;0.80;;;;;;;1.47;99.36;98509.06;5027409;28;20056;-47
2023/01/16 04:14:35;;;;;;;1.83;1.00;;;;;;;1.43;99.40;98502.69;5025867;28;20098;-44
2023/01/16 04:17:03;;;;;;;2.35;1.02;;;;;;;1.43;99.63;98502.69;5026574;28;20499;-43
2023/01/16 04:19:32;;;;;;;2.22;1.17;;;;;;;1.41;99.25;98493.25;5009143;28;20060;-44
2023/01/16 04:22:05;;;;;;;4.50;0.90;;;;;;;1.40;99.42;98502.59;5028998;28;20506;-43
2023/01/16 04:24:34;;;;;;;0.82;0.63;;;;;;;1.37;98.92;98504.06;5025881;28;20048;-45
2023/01/16 04:27:01;;;;;;;0.70;0.70;;;;;;;1.34;98.88;98496.56;5019386;28;20133;-43
2023/01/16 04:29:27;;;;;;;3.03;0.60;;;;;;;1.31;99.06;98510.06;5020038;28;20434;-43
2023/01/16 04:31:54;;;;;;;2.47;0.75;;;;;;;1.31;99.00;98510.88;5018936;28;20167;-45
2023/01/16 04:34:21;;;;;;;2.42;0.88;;;;;;;1.30;98.86;98503.81;5012682;28;20831;-44
2023/01/16 04:36:47;;;;;;;1.60;0.68;;;;;;;1.26;98.82;98505.63;5022931;28;20045;-46
2023/01/16 04:39:14;;;;;;;0.60;0.45;;;;;;;1.24;98.72;98505.94;5025949;28;20049;-44
2023/01/16 04:41:41;;;;;;;1.50;0.50;;;;;;;1.22;98.98;98507.44;5026232;28;20753;-42
2023/01/16 04:44:09;;;;;;;3.72;0.50;;;;;;;1.19;98.86;98505.41;5025322;28;20503;-43
2023/01/16 04:46:37;;;;;;;4.70;0.77;;;;;;;1.17;99.01;98515.81;5023560;28;20060;-46
2023/01/16 04:49:05;;;;;;;2.88;0.73;;;;;;;1.15;99.05;98516.16;5020493;28;20045;-41
2023/01/16 04:51:33;;;;;;;3.22;0.50;;;;;;;1.14;98.67;98516.50;5027739;28;20041;-42
2023/01/16 04:53:59;;;;;;;0.50;0.40;;;;;;;1.13;98.56;98525.81;5026133;28;20052;-43
2023/01/16 04:56:26;;;;;;;3.03;0.47;;;;;;;1.11;98.87;98526.13;5025232;28;20235;-44
2023/01/16 04:58:53;;;;;;;4.72;0.80;;;;;;;1.09;98.52;98530.34;5035630;28;20051;-43
2023/01/16 05:01:20;;;;;;;1.92;0.68;;;;;;;1.08;98.38;98529.56;5017803;28;20309;-43
2023/01/16 05:03:47;;;;;;;5.82;0.60;;;;;;;1.05;98.54;98530.22;5004779;28;20049;-43
2023/01/16 05:06:14;;;;;;;2.95;0.70;;;;;;;1.06;98.47;98531.03;5005500;28;20053;-43
2023/01/16 05:08:40;;;;;;;1.35;0.50;;;;;;;1.04;98.50;98527.81;5007776;28;20096;-43
2023/01/16 05:11:08;;;;;;;12.00;1.48;;;;;;;1.02;98.50;98527.38;5006981;28;20053;-43
2023/01/16 05:13:34;;;;;;;2.30;0.45;;;;;;;1.00;98.61;98527.72;5013167;28;20045;-44
2023/01/16 05:16:01;;;;;;;2.42;0.70;;;;;;;0.99;98.43;98530.78;5042489;28;20071;-43
2023/01/16 05:18:28;;;;;;;1.83;0.50;;;;;;;0.96;98.31;98529.50;5018830;28;20092;-43
2023/01/16 05:20:55;;;;;;;1.48;0.60;;;;;;;0.94;98.43;98541.88;5007402;28;20042;-43
2023/01/16 05:23:22;;;;;;;6.60;1.45;;;;;;;0.94;98.74;98537.22;5007138;28;20060;-43
2023/01/16 05:25:49;;;;;;;2.13;0.45;;;;;;;0.92;98.33;98530.53;5007266;28;20404;-44
2023/01/16 05:28:15;;;;;;;2.92;0.47;;;;;;;0.89;98.60;98536.63;5006933;28;20049;-43
2023/01/16 05:30:42;;;;;;;1.13;0.73;;;;;;;0.87;98.53;98536.19;5013005;28;20054;-43
2023/01/16 05:33:09;;;;;;;1.45;0.80;;;;;;;0.87;98.58;98538.91;5042189;28;20406;-44
2023/01/16 05:35:35;;;;;;;2.97;0.95;;;;;;;0.87;98.27;98533.47;5019442;28;20042;-44
2023/01/16 05:38:02;;;;;;;2.20;0.73;;;;;;;0.83;98.34;98532.53;5005789;28;20053;-43
2023/01/16 05:40:29;;;;;;;7.65;0.95;;;;;;;0.83;98.41;98529.81;5006554;28;20411;-45
2023/01/16 05:42:55;;;;;;;4.55;0.98;;;;;;;0.83;98.20;98527.06;5000388;28;20420;-49
2023/01/16 05:45:23;;;;;;;1.40;0.80;;;;;;;0.80;98.57;98530.47;5002893;28;20795;-43
2023/01/16 05:47:50;;;;;;;5.53;1.13;;;;;;;0.81;98.48;98537.53;4994642;28;20125;-48
2023/01/16 05:50:16;;;;;;;2.83;0.75;;;;;;;0.79;98.23;98539.78;4992608;28;20054;-45
2023/01/16 05:52:43;;;;;;;2.72;0.63;;;;;;;0.75;98.20;98542.38;5004879;28;20042;-43
2023/01/16 05:55:10;;;;;;;4.28;1.20;;;;;;;0.74;98.51;98548.16;5004112;28;20034;-44
2023/01/16 05:57:36;;;;;;;4.32;0.98;;;;;;;0.71;98.09;98554.28;5007507;28;20053;-43
2023/01/16 06:00:05;;;;;;;3.65;1.45;;;;;;;0.66;98.27;98549.84;5004663;28;20045;-50
2023/01/16 06:02:32;;;;;;;4.45;1.65;;;;;;;0.64;98.48;98556.75;5025077;28;20053;-43
2023/01/16 06:04:59;;;;;;;3.85;1.10;;;;;;;0.61;98.44;98561.72;5035265;28;20380;-43
2023/01/16 06:07:25;;;;;;;2.65;1.00;;;;;;;0.60;98.28;98562.84;5027693;28;20053;-44
2023/01/16 06:09:52;;;;;;;1.58;1.10;;;;;;;0.57;98.40;98568.16;5029647;28;20045;-43
2023/01/16 06:12:20;;;;;;;4.47;1.50;;;;;;;0.54;98.61;98563.38;5030305;28;20103;-43
2023/01/16 06:14:47;;;;;;;2.58;0.93;;;;;;;0.52;98.38;98561.00;5027815;28;20046;-43
2023/01/16 06:17:15;;;;;;;4.50;1.40;;;;;;;0.50;98.67;98567.91;5012650;28;20133;-43
2023/01/16 06:19:43;;;;;;;4.78;1.58;;;;;;;0.48;98.76;98560.06;5029711;28;20061;-43
2023/01/16 06:22:11;;;;;;;2.60;1.20;;;;;;;0.49;98.43;98556.22;5033267;28;20049;-43
2023/01/16 06:24:38;;;;;;;4.30;1.20;;;;;;;0.50;98.52;98557.00;5029943;28;20132;-43
2023/01/16 06:27:05;;;;;;;2.58;1.50;;;;;;;0.49;98.73;98558.13;5020188;28;20053;-43
2023/01/16 06:29:32;;;;;;;4.43;1.20;;;;;;;0.46;98.52;98559.59;5030045;28;20052;-43
2023/01/16 06:31:59;;;;;;;3.70;1.38;;;;;;;0.43;98.63;98562.19;5029381;28;20068;-43
2023/01/16 06:34:25;;;;;;;6.43;1.27;;;;;;;0.39;98.55;98556.63;5029507;28;20521;-44
2023/01/16 06:36:52;;;;;;;4.43;1.58;;;;;;;0.37;98.54;98558.06;5028977;28;20045;-48
2023/01/16 06:39:19;;;;;;;5.10;0.80;;;;;;;0.36;98.57;98560.00;5041369;28;20053;-44
2023/01/16 06:41:45;;;;;;;3.30;0.90;;;;;;;0.34;98.63;98564.19;5029290;28;20045;-43
2023/01/16 06:44:12;;;;;;;5.35;1.63;;;;;;;0.33;98.77;98560.66;5023121;28;20060;-43
2023/01/16 06:46:39;;;;;;;2.50;0.80;;;;;;;0.32;98.65;98572.66;5025903;28;20080;-45
2023/01/16 06:49:10;;;;;;;4.70;0.85;;;;;;;0.30;98.52;98568.66;5025895;28;20050;-45
2023/01/16 06:51:37;;;;;;;2.83;0.90;;;;;;;0.29;98.75;98573.31;5025919;28;20046;-45
2023/01/16 06:54:04;;;;;;;3.50;0.95;;;;;;;0.28;98.71;98563.56;5026808;28;20045;-45
2023/01/16 06:56:30;;;;;;;6.07;1.08;;;;;;;0.26;98.73;98551.44;5026628;28;20153;-43
2023/01/16 06:58:57;;;;;;;4.20;1.35;;;;;;;0.24;98.48;98561.84;5026644;28;20045;-44
2023/01/16 07:01:24;;;;;;;3.00;1.23;;;;;;;0.24;98.75;98559.91;5026901;28;20045;-43
2023/01/16 07:03:51;;;;;;;6.40;1.40;;;;;;;0.24;98.72;98565.34;5027217;28;20136;-43
2023/01/16 07:06:18;;;;;;;4.38;1.48;;;;;;;0.19;98.38;98562.81;5007510;28;20158;-49
2023/01/16 07:08:45;;;;;;;6.55;1.73;;;;;;;0.18;98.71;98572.13;5026783;28;20061;-43
2023/01/16 07:11:12;;;;;;;4.75;1.48;;;;;;;0.17;98.81;98565.09;5020529;28;20511;-44
2023/01/16 07:13:39;;;;;;;2.05;1.50;;;;;;;0.15;98.51;98570.06;5029870;28;20049;-43
2023/01/16 07:24:29;;;;;;;3.00;1.88;;;;;;;0.05;98.40;98578.59;5023259;28;20307;-48
2023/01/16 07:26:59;;;;;;;4.38;1.10;;;;;;;0.04;98.14;98579.72;5024839;28;20314;-44
2023/01/16 07:29:32;;;;;;;2.75;0.95;;;;;;;0.04;98.35;98571.56;5030962;28;20059;-45
2023/01/16 07:32:02;;;;;;;5.68;2.35;;;;;;;0.02;98.16;98579.25;5027286;28;20117;-51
2023/01/16 07:34:28;;;;;;;3.70;1.17;;;;;;;0.00;98.23;98582.28;5028376;28;20128;-44
2023/01/16 07:36:55;;;;;;;4.28;1.23;;;;;;;-0.01;98.11;98588.06;5020681;28;20046;-44
2023/01/16 07:39:21;;;;;;;6.43;1.10;;;;;;;-0.03;98.09;98582.94;5025946;28;20053;-45
2023/01/16 07:41:50;;;;;;;7.07;3.35;;;;;;;-0.05;97.67;98595.28;5028740;28;20049;-51
2023/01/16 07:44:24;;;;;;;2.25;1.05;;;;;;;-0.06;97.87;98594.50;5027396;28;20561;-45
2023/01/16 07:46:51;;;;;;;5.03;1.42;;;;;;;-0.07;97.67;98586.66;5036617;28;20044;-46
2023/01/16 07:49:18;;;;;;;5.43;1.55;;;;;;;-0.08;97.69;98590.53;5028742;28;20438;-44
2023/01/16 07:51:44;;;;;;;4.85;1.35;;;;;;;-0.09;97.66;98586.19;5028736;28;20056;-43
2023/01/16 07:54:12;;;;;;;5.78;1.00;;;;;;;-0.10;97.52;98599.00;5028340;28;20041;-43
2023/01/16 07:56:39;;;;;;;6.15;1.10;;;;;;;-0.11;97.29;98596.63;5028517;28;20668;-45
2023/01/16 07:59:06;;;;;;;4.32;1.42;;;;;;;-0.11;97.30;98610.22;5028380;28;20099;-45
2023/01/16 08:01:33;;;;;;;2.67;1.05;;;;;;;-0.09;97.28;98607.94;5027591;28;20075;-45
2023/01/16 08:04:00;;;;;;;2.60;1.20;;;;;;;-0.12;97.33;98606.69;5030549;28;20038;-44
2023/01/16 08:06:28;;;;;;;2.38;1.23;;;;;;;-0.14;97.40;98602.69;5024234;28;20053;-44
2023/01/16 08:08:54;;;;;;;4.38;1.00;;;;;;;-0.14;97.11;98608.13;5021373;28;20124;-45
2023/01/16 08:11:38;;;;;;;2.88;1.20;;;;;;;-0.17;97.08;98606.06;5019237;28;20042;-43
2023/01/16 08:14:06;;;;;;;1.42;0.90;;;;;;;-0.21;97.08;98607.81;5024119;28;20478;-44
2023/01/16 08:16:34;;;;;;;3.05;1.40;;;;;;;-0.23;96.97;98610.09;5018881;28;20064;-45
2023/01/16 08:19:01;;;;;;;4.15;1.27;;;;;;;-0.24;97.12;98624.81;5028086;28;20060;-46
2023/01/16 08:21:28;;;;;;;8.30;1.48;;;;;;;-0.24;97.03;98619.38;5025728;28;20041;-47
2023/01/16 08:23:54;;;;;;;4.70;1.10;;;;;;;-0.27;96.86;98620.03;5024773;28;20041;-46
2023/01/16 08:26:21;;;;;;;2.47;1.10;;;;;;;-0.28;96.97;98613.00;5021305;28;20099;-44
2023/01/16 08:28:48;;;;;;;3.50;1.20;;;;;;;-0.30;96.70;98604.38;5026891;28;20045;-47
2023/01/16 08:31:17;;;;;;;2.40;0.68;;;;;;;-0.33;96.84;98611.25;5026138;28;20060;-50
2023/01/16 08:33:46;;;;;;;3.92;1.85;;;;;;;-0.34;96.80;98608.84;5025972;28;20399;-45
2023/01/16 08:36:15;;;;;;;4.03;0.90;;;;;;;-0.36;96.76;98606.47;5026849;28;20041;-46
2023/01/16 08:38:43;;;;;;;1.48;0.80;;;;;;;-0.34;96.89;98620.53;5028803;28;20049;-48
2023/01/16 08:51:21;;;;;;;2.20;1.05;;;;;;;-0.35;96.58;98612.69;5027310;28;20045;-46
2023/01/16 08:52:17;;;;;;;3.10;1.38;;;;;;;-0.35;96.36;98635.25;5025839;28;20463;-49
2023/01/16 08:54:44;;;;;;;4.60;1.17;;;;;;;-0.33;96.55;98626.75;5030475;28;20084;-48
2023/01/16 08:57:11;;;;;;;2.65;1.45;;;;;;;-0.33;96.24;98633.00;5002721;28;20045;-46
2023/01/16 08:59:38;;;;;;;4.05;1.75;;;;;;;-0.33;96.06;98645.78;5027466;28;20136;-45
2023/01/16 09:02:10;;;;;;;2.47;0.85;;;;;;;-0.30;96.35;98647.88;5023720;28;20175;-47
2023/01/16 09:04:37;;;;;;;2.47;1.15;;;;;;;-0.28;95.93;98651.84;5025482;28;20041;-45
2023/01/16 09:07:03;;;;;;;2.58;1.33;;;;;;;-0.28;96.03;98646.41;5023196;28;20037;-49
2023/01/16 09:09:30;;;;;;;7.03;1.48;;;;;;;-0.25;95.95;98658.56;5025110;28;20038;-50
2023/01/16 09:14:42;;;;;;;1.88;1.33;;;;;;;-0.25;95.90;98653.13;5023401;28;20455;-44
2023/01/16 09:17:09;;;;;;;2.50;1.10;;;;;;;-0.25;95.86;98656.66;5010437;28;20447;-50
2023/01/16 09:19:36;;;;;;;2.58;1.20;;;;;;;-0.23;95.70;98656.31;5027076;28;20384;-46
2023/01/16 09:22:05;;;;;;;6.72;1.35;;;;;;;-0.24;95.56;98649.28;5025550;28;20049;-49
2023/01/16 09:24:33;;;;;;;0.70;0.70;;;;;;;-0.22;95.40;98655.19;5021926;28;20069;-52
2023/01/16 09:27:02;;;;;;;3.22;1.38;;;;;;;-0.18;95.53;98653.41;5020985;28;20069;-44
2023/01/16 09:29:30;;;;;;;1.73;1.08;;;;;;;-0.17;95.58;98663.16;5023930;28;20103;-44
2023/01/16 09:31:58;;;;;;;7.10;1.30;;;;;;;-0.16;95.89;98656.63;5024448;28;20045;-52
2023/01/16 09:34:25;;;;;;;7.78;1.30;;;;;;;-0.17;95.42;98660.44;5024080;28;20052;-45
2023/01/16 09:36:51;;;;;;;2.90;1.27;;;;;;;-0.14;95.42;98663.34;5025741;28;20042;-44
2023/01/16 09:39:18;;;;;;;3.45;0.88;;;;;;;-0.12;95.37;98657.56;5025774;28;20437;-50
2023/01/16 09:44:41;;;;;;;2.55;1.45;;;;;;;-0.06;95.18;98664.41;5016787;28;20049;-45
2023/01/16 09:47:08;;;;;;;3.70;1.40;;;;;;;-0.07;94.95;98669.06;5017492;28;20638;-52
2023/01/16 09:49:53;;;;;;;4.72;1.15;;;;;;;-0.04;94.92;98668.41;5023788;28;20045;-47
2023/01/16 09:58:37;;;;;;;2.72;1.05;;;;;;;0.05;94.51;98671.09;5022505;28;20062;-46
2023/01/16 10:01:22;;;;;;;3.00;0.90;;;;;;;0.07;94.69;98681.63;5019413;28;20741;-46
2023/01/16 10:03:49;;;;;;;4.43;1.17;;;;;;;0.09;94.59;98677.47;5023857;28;20483;-46
2023/01/16 10:06:26;;;;;;;6.07;1.05;;;;;;;0.12;94.47;98673.28;5027138;28;20041;-45
2023/01/16 10:09:12;;;;;;;4.22;0.98;;;;;;;0.13;94.36;98678.44;5026684;28;20399;-50
2023/01/16 10:11:58;;;;;;;6.32;0.82;;;;;;;0.16;94.20;98676.97;5024554;28;20042;-48
2023/01/16 10:14:51;;;;;;;3.45;0.90;;;;;;;0.15;94.32;98687.06;5017560;28;20790;-48
2023/01/16 10:17:40;;;;;;;2.67;0.70;;;;;;;0.18;94.37;98680.16;5026052;28;20049;-46
2023/01/16 10:20:35;;;;;;;4.38;0.98;;;;;;;0.22;94.07;98679.16;5010104;28;20042;-47
2023/01/16 10:23:12;;;;;;;3.13;1.02;;;;;;;0.25;94.02;98681.25;5026779;28;20578;-48
2023/01/16 10:26:00;;;;;;;2.70;0.82;;;;;;;0.28;93.92;98668.91;5025570;28;20112;-45
2023/01/16 10:29:15;;;;;;;3.33;0.85;;;;;;;0.32;93.97;98662.47;5017158;28;20044;-45
2023/01/16 10:31:47;;;;;;;1.70;0.75;;;;;;;0.35;93.86;98667.25;4996840;28;20132;-47
2023/01/16 10:34:29;;;;;;;4.45;1.13;;;;;;;0.37;93.50;98675.88;5020486;28;20072;-45
2023/01/16 10:36:59;;;;;;;2.75;1.08;;;;;;;0.41;93.61;98679.56;5018213;28;20052;-51
2023/01/16 10:39:35;;;;;;;2.38;0.90;;;;;;;0.45;93.64;98680.47;5027036;28;20077;-49
2023/01/16 10:50:43;;;;;;;1.92;0.80;;;;;;;0.55;93.26;98661.06;5029654;28;20061;-46
2023/01/16 10:53:15;;;;;;;2.53;0.68;;;;;;;0.59;93.00;98659.25;5027660;28;20051;-44
2023/01/16 10:55:46;;;;;;;5.82;1.60;;;;;;;0.63;93.32;98658.59;5008227;28;20490;-45
2023/01/16 10:58:25;;;;;;;6.13;0.88;;;;;;;0.66;92.92;98660.69;5023120;28;20068;-46
2023/01/16 11:01:01;;;;;;;8.73;1.77;;;;;;;0.69;93.13;98662.75;5026910;28;20049;-44
2023/01/16 11:03:44;;;;;;;2.38;1.00;;;;;;;0.69;92.86;98658.06;5026687;28;20136;-47
2023/01/16 11:06:19;;;;;;;3.75;1.15;;;;;;;0.72;92.90;98662.06;5023294;28;20137;-45
2023/01/16 11:09:06;;;;;;;3.88;1.00;;;;;;;0.75;92.66;98667.66;5027458;28;20521;-47
2023/01/16 11:20:27;;;;;;;3.90;0.75;;;;;;;0.84;92.38;98654.78;5022993;28;20049;-46
2023/01/16 11:22:58;;;;;;;4.03;1.00;;;;;;;0.88;92.04;98655.69;5014226;28;20062;-50
2023/01/16 11:25:27;;;;;;;1.60;0.68;;;;;;;0.92;92.37;98662.09;5024797;28;20506;-47
2023/01/16 11:27:58;;;;;;;4.57;0.60;;;;;;;0.96;91.72;98654.03;5015230;28;20055;-45
2023/01/16 11:30:32;;;;;;;1.88;0.80;;;;;;;0.98;91.77;98649.06;5026959;28;20438;-46
2023/01/16 11:33:06;;;;;;;2.67;0.98;;;;;;;1.01;91.32;98651.09;5026226;28;20040;-47
2023/01/16 11:35:36;;;;;;;2.90;2.10;;;;;;;1.04;91.57;98648.50;5025860;28;20092;-48
2023/01/16 11:38:06;;;;;;;7.20;2.20;;;;;;;1.09;91.43;98642.06;5015494;28;20516;-50
2023/01/16 11:40:48;;;;;;;1.92;0.75;;;;;;;1.13;91.46;98634.81;5029376;28;20057;-45
2023/01/16 11:46:29;;;;;;;4.47;0.60;;;;;;;1.16;91.23;98634.16;5028004;28;20562;-43
2023/01/16 11:49:02;;;;;;;1.42;0.47;;;;;;;1.18;91.25;98616.34;5025197;28;20038;-46
2023/01/16 11:51:36;;;;;;;3.38;0.70;;;;;;;1.22;91.09;98619.16;5023842;28;20391;-45
2023/01/16 11:54:14;;;;;;;1.73;0.50;;;;;;;1.25;90.90;98621.22;5029712;28;20085;-45
2023/01/16 11:56:50;;;;;;;2.83;1.17;;;;;;;1.29;90.65;98605.81;5029218;28;20038;-45
2023/01/16 11:59:36;;;;;;;2.85;1.00;;;;;;;1.33;90.62;98609.44;5030442;28;20049;-47
2023/01/16 12:02:21;;;;;;;4.25;0.80;;;;;;;1.36;90.31;98616.97;5034273;28;20133;-45
2023/01/16 12:08:33;;;;;;;6.25;1.00;;;;;;;1.45;89.97;98603.25;5027968;28;20042;-49
2023/01/16 12:11:19;;;;;;;3.65;1.02;;;;;;;1.51;90.29;98608.13;5028393;28;20487;-45
2023/01/16 12:16:41;;;;;;;2.95;0.57;;;;;;;1.61;89.72;98585.91;5028154;28;20547;-46
2023/01/16 12:19:14;;;;;;;4.35;2.50;;;;;;;1.65;89.79;98589.53;5038135;28;20118;-49
2023/01/16 12:21:58;;;;;;;;;;;;;;;1.68;89.71;98586.13;5028770;28;20053;-49
2023/01/16 12:24:31;;;;;;;6.13;0.95;;;;;;;1.69;89.71;98587.72;5027483;28;19928;-46
2023/01/16 12:27:13;;;;;;;3.55;0.52;;;;;;;1.71;89.60;98588.19;5028033;28;20490;-49
2023/01/16 12:30:01;;;;;;;8.95;1.10;;;;;;;1.71;89.21;98590.91;5027617;28;20053;-46
2023/01/16 12:32:33;;;;;;;6.28;1.50;;;;;;;1.70;89.39;98589.31;5027116;28;20046;-45
2023/01/16 12:35:13;;;;;;;;;;;;;;;1.68;88.87;98574.41;5029459;28;20041;-46
2023/01/16 12:37:47;;;;;;;2.08;0.90;;;;;;;1.68;88.92;98579.88;5030947;28;19925;-46
2023/01/16 12:40:29;;;;;;;7.85;0.90;;;;;;;1.67;88.95;98568.16;5027614;28;20816;-43
2023/01/16 12:43:23;;;;;;;7.72;1.65;;;;;;;1.67;88.90;98570.09;5014240;28;20053;-45
2023/01/16 12:45:58;;;;;;;2.40;0.88;;;;;;;1.67;89.08;98562.69;5010843;28;20056;-47
2023/01/16 12:48:43;;;;;;;6.88;1.20;;;;;;;1.68;88.60;98552.59;5019230;28;20041;-44
2023/01/16 12:51:31;;;;;;;3.67;1.42;;;;;;;1.67;88.56;98551.78;5027929;28;20041;-44
2023/01/16 12:54:43;;;;;;;5.35;0.77;;;;;;;1.68;88.65;98552.59;5031167;28;20049;-43
2023/01/16 12:57:38;;;;;;;8.35;2.15;;;;;;;1.68;88.53;98547.94;5024995;28;20495;-48
2023/01/16 13:00:08;;;;;;;4.28;1.20;;;;;;;1.70;88.23;98550.31;5027966;28;20041;-43